LRCLLRCT

Guest
Details From LRCL - Cluj Napoca
To LRCT - Campia Turzii
Flight Number -
Tags Generated
Created
Modified
Stats Distance 18 nm / 34 km
Max Altitude 0 ft / 0 m
Waypoints 2
Social Downloads 0
Likes 0
Share VATSIM

Download

Looking for another format? Having issues loading an existing format? Contact us
Advertisement - Login to hide

Notes

Generated

Route

LRCL LRCT

ID Type Via Altitude Latitude Longitude Leg Dist Tot Dist Heading (true) Name
O LRCL APT - 0 ft / 0 m 46.78352˚ 23.67429˚ - 0 nm - -
O LRCT APT - 0 ft / 0 m 46.51257˚ 23.87927˚ 18 nm 18 nm 152° / 153° -

Altitude Profile

Advertisement - Login to hide

LRCL

Details ICAO LRCL (CLJ)
Name CLUJ NAPOCA
Region Romania
Timezone Europe/Bucharest (UTC+2.0)
Stats Elevation 1,036 ft / 316 m (AMSL)
Location 46.785109° 23.686166°
Runways 1
Magnetic Variation 5.538° E

METAR

LRCL 130400Z 21003KT 150V320 2500 BR NSC M00/M01 Q1014

Decode

TAF

Not found

Departure Runways

ID Width Length Bearing (true) Bearing (mag) Surface Threshold Offset Overrun Length
08 98 ft / 30 m 6,045 ft / 1,842 m 78.96° 73.42° Concrete 0 ft / 0 m 0 ft / 0 m
26 98 ft / 30 m 6,045 ft / 1,842 m 258.98° 253.44° Concrete 0 ft / 0 m 0 ft / 0 m

LRCT

Details ICAO LRCT
Name CAMPIA TURZII
Region Romania
Timezone Europe/Bucharest (UTC+2.0)
Stats Elevation 1,083 ft / 330 m (AMSL)
Location 46.502279° 23.885914°
Runways 1
Magnetic Variation 5.531° E

METAR

LRCT 130300Z 16010KT 6000 FEW060 SCT150 01/00 Q1016 WHT WHT

Decode

TAF

Not found

Destination Runways

ID Width Length Bearing (true) Bearing (mag) Surface Threshold Offset Overrun Length
15 164 ft / 50 m 8,219 ft / 2,505 m 156.06° 150.53° Concrete 0 ft / 0 m 1,804 ft / 550 m
33 164 ft / 50 m 8,219 ft / 2,505 m 336.06° 330.53° Concrete 0 ft / 0 m 1,400 ft / 427 m